Time;durP1;ratioP1;P1;durP2;ratioP2;P2;SDS_P1;SDS_P2;PMS_P1;PMS_P2;Temp;Humidity;BMP_temperature;BMP_pressure;BME280_temperature;BME280_humidity;BME280_pressure;Samples;Min_cycle;Max_cycle;Signal;HPM_P1;HPM_P2
2022/11/20 00:00:45;;;;;;;5.88;3.75;;;;;;;18.29;35.38;101209.34;4994754;28;20068;-68
2022/11/20 00:03:10;;;;;;;5.53;3.53;;;;;;;18.23;35.60;101210.69;5001368;28;20046;-67
2022/11/20 00:05:35;;;;;;;5.95;3.60;;;;;;;18.22;35.53;101208.16;5001484;28;20104;-67
2022/11/20 00:08:01;;;;;;;5.23;3.40;;;;;;;18.23;35.42;101210.69;4994684;28;20457;-66
2022/11/20 00:10:26;;;;;;;5.10;3.40;;;;;;;18.21;35.37;101211.75;4994915;28;20300;-66
2022/11/20 00:12:51;;;;;;;7.32;3.78;;;;;;;18.15;35.42;101202.50;4994272;28;20034;-68
2022/11/20 00:15:16;;;;;;;5.50;3.50;;;;;;;18.15;35.00;101209.56;4994617;28;20071;-66
2022/11/20 00:17:42;;;;;;;5.57;3.23;;;;;;;18.08;35.20;101201.28;4994343;28;20038;-67
2022/11/20 00:20:08;;;;;;;4.97;3.10;;;;;;;18.05;34.92;101204.97;4994450;28;20264;-67
2022/11/20 00:22:33;;;;;;;5.75;3.60;;;;;;;18.03;35.08;101201.63;4993817;28;20052;-65
2022/11/20 00:24:58;;;;;;;5.17;3.33;;;;;;;18.08;34.99;101198.66;4994195;28;20037;-67
2022/11/20 00:27:23;;;;;;;5.47;3.50;;;;;;;17.98;35.28;101193.22;4994066;28;20260;-66
2022/11/20 00:29:49;;;;;;;5.10;3.38;;;;;;;17.97;35.31;101193.34;4994043;28;20354;-65
2022/11/20 00:32:14;;;;;;;5.55;3.50;;;;;;;17.97;35.08;101196.81;4994347;28;20034;-65
2022/11/20 00:34:39;;;;;;;5.50;3.47;;;;;;;17.98;35.06;101205.59;4994548;28;20429;-66
2022/11/20 00:37:04;;;;;;;5.80;3.45;;;;;;;17.94;35.29;101200.53;4993580;28;20486;-67
2022/11/20 00:39:30;;;;;;;4.93;3.37;;;;;;;17.89;35.04;101191.28;4993729;28;20081;-66
2022/11/20 00:41:55;;;;;;;5.37;3.60;;;;;;;17.89;34.94;101202.66;4993753;28;20748;-68
2022/11/20 00:44:20;;;;;;;5.18;3.40;;;;;;;17.88;34.89;101195.72;4993042;28;20601;-66
2022/11/20 00:46:45;;;;;;;5.90;3.85;;;;;;;17.86;34.81;101192.28;4993725;28;20101;-66
2022/11/20 00:49:11;;;;;;;5.33;3.73;;;;;;;17.87;34.83;101195.78;4994009;28;20057;-65
2022/11/20 00:51:36;;;;;;;5.90;3.60;;;;;;;17.92;34.73;101207.69;4993557;28;20271;-67
2022/11/20 00:54:01;;;;;;;4.70;3.40;;;;;;;17.93;34.88;101205.91;4994483;28;20088;-67
2022/11/20 00:56:28;;;;;;;5.13;3.42;;;;;;;17.93;35.14;101204.13;4993036;28;20486;-65
2022/11/20 00:58:54;;;;;;;6.00;3.67;;;;;;;17.92;35.31;101197.16;4992822;28;20132;-66
2022/11/20 01:01:23;;;;;;;6.00;3.72;;;;;;;17.93;34.74;101198.84;4993394;28;20164;-67
2022/11/20 01:03:50;;;;;;;5.25;3.40;;;;;;;17.90;34.71;101192.97;4993340;28;20387;-67
2022/11/20 01:06:24;;;;;;;5.05;3.42;;;;;;;17.84;35.05;101186.31;4993114;28;20113;-65
2022/11/20 01:08:51;;;;;;;4.95;3.38;;;;;;;17.65;34.80;101157.84;4993444;28;20030;-67
2022/11/20 01:11:37;;;;;;;6.88;3.40;;;;;;;17.85;35.05;101193.28;4993714;28;20095;-66
2022/11/20 01:14:06;;;;;;;5.38;3.72;;;;;;;17.82;34.81;101190.03;4993635;28;20049;-66
2022/11/20 01:16:36;;;;;;;4.85;3.08;;;;;;;17.80;34.97;101192.78;4993682;28;20083;-63
2022/11/20 01:19:05;;;;;;;5.15;3.30;;;;;;;17.80;34.52;101192.78;4993366;28;20042;-64
2022/11/20 01:21:33;;;;;;;4.95;3.33;;;;;;;17.79;34.89;101195.53;4993112;28;20142;-64
2022/11/20 01:23:59;;;;;;;6.15;3.80;;;;;;;17.84;34.46;101206.56;4993555;28;20040;-65
2022/11/20 01:26:30;;;;;;;5.72;3.72;;;;;;;17.75;34.72;101192.25;4992924;28;20035;-64
2022/11/20 01:28:56;;;;;;;5.22;3.35;;;;;;;17.74;34.78;101193.22;4992729;28;20548;-65
2022/11/20 01:31:30;;;;;;;5.75;3.40;;;;;;;17.80;34.42;101205.09;4993046;28;20038;-67
2022/11/20 01:33:57;;;;;;;5.73;3.70;;;;;;;17.73;34.28;101181.81;4992395;28;20034;-66
2022/11/20 01:36:24;;;;;;;4.85;3.20;;;;;;;17.72;34.53;101188.06;4993143;28;20025;-67
2022/11/20 01:38:56;;;;;;;5.55;3.17;;;;;;;17.72;34.44;101187.22;4993202;28;20038;-66
2022/11/20 01:43:20;;;;;;;5.32;3.63;;;;;;;17.71;34.31;101175.84;4993513;28;20037;-66
2022/11/20 01:44:10;;;;;;;5.50;3.63;;;;;;;17.73;34.58;101192.38;4992743;28;20482;-66
2022/11/20 01:46:38;;;;;;;5.28;3.70;;;;;;;17.70;34.44;101187.31;4992910;28;20490;-66
2022/11/20 01:49:29;;;;;;;5.30;3.97;;;;;;;17.75;34.55;101197.53;4992516;28;20044;-68
2022/11/20 01:52:03;;;;;;;5.80;3.63;;;;;;;17.65;34.50;101186.00;4992370;28;20124;-67
2022/11/20 01:54:37;;;;;;;6.25;3.63;;;;;;;17.70;34.23;101205.78;4992921;28;20100;-66
2022/11/20 01:57:06;;;;;;;5.50;3.67;;;;;;;17.64;34.17;101194.84;4992076;28;20111;-66
2022/11/20 01:59:31;;;;;;;6.18;4.10;;;;;;;17.63;34.10;101198.47;4992272;28;20030;-67
2022/11/20 02:01:56;;;;;;;5.55;3.83;;;;;;;17.59;34.11;101185.50;4992611;28;20048;-66
2022/11/20 02:04:22;;;;;;;5.40;3.50;;;;;;;17.60;34.04;101183.69;4992645;28;20061;-65
2022/11/20 02:06:52;;;;;;;6.15;4.15;;;;;;;17.65;34.36;101191.28;4992867;28;20026;-67
2022/11/20 02:09:18;;;;;;;6.03;3.88;;;;;;;17.57;34.46;101176.00;4992047;28;20177;-67
2022/11/20 02:11:43;;;;;;;6.00;4.00;;;;;;;17.59;34.31;101185.50;4992368;28;20137;-66
2022/11/20 02:14:09;;;;;;;6.18;3.88;;;;;;;17.56;34.48;101179.59;4992051;28;20274;-66
2022/11/20 02:16:44;;;;;;;5.47;3.70;;;;;;;17.52;34.33;101175.53;4991644;28;20480;-67
2022/11/20 02:19:23;;;;;;;5.72;3.80;;;;;;;17.57;34.28;101181.28;4991668;28;20034;-65
2022/11/20 02:22:21;;;;;;;5.90;4.00;;;;;;;17.58;34.33;101190.88;4991982;28;20073;-66
2022/11/20 02:24:49;;;;;;;5.65;3.80;;;;;;;17.50;34.53;101172.13;4991995;28;20040;-68
2022/11/20 02:27:16;;;;;;;6.30;4.18;;;;;;;17.49;34.17;101175.75;4992068;28;20046;-68
2022/11/20 02:29:52;;;;;;;5.72;3.90;;;;;;;17.37;33.67;101159.88;4992008;28;20368;-66
2022/11/20 02:32:25;;;;;;;5.78;3.63;;;;;;;17.54;34.14;101184.97;4991961;28;20046;-65
2022/11/20 02:34:51;;;;;;;6.72;3.65;;;;;;;17.51;34.09;101190.47;4991398;28;20042;-65
2022/11/20 02:37:17;;;;;;;6.03;4.07;;;;;;;17.47;34.05;101167.94;4992298;28;20049;-64
2022/11/20 02:39:45;;;;;;;5.28;3.67;;;;;;;17.42;34.05;101164.81;4992344;28;20544;-67
2022/11/20 02:42:11;;;;;;;6.38;4.22;;;;;;;17.41;34.23;101168.41;4992032;28;20046;-65
2022/11/20 02:44:36;;;;;;;6.00;4.03;;;;;;;17.38;34.05;101164.19;4991717;28;20030;-64
2022/11/20 02:47:01;;;;;;;5.95;4.00;;;;;;;17.36;33.97;101166.09;4991207;28;20549;-66
2022/11/20 02:49:27;;;;;;;5.93;4.07;;;;;;;17.46;34.10;101184.69;4991642;28;20075;-66
2022/11/20 02:51:52;;;;;;;6.43;3.90;;;;;;;17.37;34.15;101173.06;4992169;28;20029;-64
2022/11/20 02:54:17;;;;;;;5.63;3.72;;;;;;;17.46;34.12;101178.59;4998602;28;20044;-65
2022/11/20 02:56:43;;;;;;;6.47;3.90;;;;;;;17.42;33.91;101170.09;4991369;28;20092;-65
2022/11/20 02:59:08;;;;;;;5.45;3.80;;;;;;;17.44;34.25;101176.06;4991630;28;20521;-65
2022/11/20 03:01:33;;;;;;;5.72;4.20;;;;;;;17.32;34.07;101148.84;4991432;28;20034;-68
2022/11/20 03:03:59;;;;;;;5.60;3.50;;;;;;;17.42;33.94;101178.00;4991620;28;20377;-68
2022/11/20 03:06:24;;;;;;;6.00;3.92;;;;;;;17.35;33.94;101159.13;4991813;28;20038;-68
2022/11/20 03:08:49;;;;;;;5.10;3.55;;;;;;;17.40;33.92;101167.56;4991193;28;20034;-67
2022/11/20 03:11:16;;;;;;;5.40;3.80;;;;;;;17.32;34.07;101154.13;4991463;28;20489;-67
2022/11/20 03:13:42;;;;;;;5.68;3.75;;;;;;;17.32;33.69;101158.53;4991271;28;20031;-65
2022/11/20 03:16:10;;;;;;;5.80;3.80;;;;;;;17.18;33.62;101131.41;4991522;28;20026;-66
2022/11/20 03:18:35;;;;;;;6.70;4.00;;;;;;;17.33;33.96;101154.94;4990531;28;20456;-66
2022/11/20 03:21:00;;;;;;;5.68;3.92;;;;;;;17.29;33.60;101149.06;4990930;28;20120;-66
2022/11/20 03:23:25;;;;;;;5.00;3.53;;;;;;;17.38;33.96;101168.63;4991400;28;20037;-65
2022/11/20 03:25:51;;;;;;;5.80;3.70;;;;;;;17.10;33.76;101117.97;4991041;28;20101;-67
2022/11/20 03:28:16;;;;;;;5.75;4.20;;;;;;;17.33;33.72;101155.78;4991097;28;20053;-65
2022/11/20 03:30:41;;;;;;;5.60;3.73;;;;;;;17.30;33.71;101140.19;4991167;28;20453;-67
2022/11/20 03:33:06;;;;;;;5.55;3.90;;;;;;;17.33;33.86;101153.16;4990866;28;20271;-65
2022/11/20 03:35:32;;;;;;;6.85;3.90;;;;;;;17.36;33.61;101155.56;4991329;28;20050;-68
2022/11/20 03:37:58;;;;;;;6.13;4.10;;;;;;;17.36;33.88;101146.81;4990527;28;20038;-67
2022/11/20 03:40:23;;;;;;;6.57;4.00;;;;;;;17.27;33.74;101127.25;4991187;28;20267;-65
2022/11/20 03:42:48;;;;;;;5.03;3.70;;;;;;;17.30;33.84;101129.66;4990836;28;20038;-68
2022/11/20 03:45:16;;;;;;;6.22;3.70;;;;;;;17.33;33.49;101132.06;4991089;28;20602;-66
2022/11/20 03:47:41;;;;;;;5.70;3.80;;;;;;;17.26;33.50;101117.69;4990762;28;20038;-65
2022/11/20 03:50:08;;;;;;;7.07;4.47;;;;;;;17.32;33.64;101126.91;4991330;28;20498;-66
2022/11/20 03:52:33;;;;;;;6.18;4.25;;;;;;;17.33;33.86;101137.34;4991607;28;20037;-67
2022/11/20 03:54:59;;;;;;;5.18;3.65;;;;;;;17.27;33.42;101121.97;4991119;28;20042;-67
2022/11/20 03:57:24;;;;;;;6.03;4.20;;;;;;;17.34;33.41;101131.13;4990571;28;20140;-64
2022/11/20 03:59:49;;;;;;;6.00;4.18;;;;;;;17.27;33.29;101116.72;4990418;28;20026;-67
2022/11/20 04:02:14;;;;;;;5.95;3.75;;;;;;;17.33;33.29;101120.69;4991242;28;20026;-65
2022/11/20 04:04:40;;;;;;;5.82;4.13;;;;;;;17.32;33.59;101121.63;4991136;28;20034;-66
2022/11/20 04:07:05;;;;;;;6.32;4.50;;;;;;;17.30;33.62;101119.13;4990695;28;20121;-66
2022/11/20 04:09:30;;;;;;;6.90;4.23;;;;;;;17.29;33.46;101117.47;4990765;28;20045;-67
2022/11/20 04:11:55;;;;;;;6.13;4.40;;;;;;;17.21;33.43;101115.38;4990918;28;20343;-68
2022/11/20 04:14:21;;;;;;;5.40;3.72;;;;;;;17.23;33.32;101116.09;4990716;28;20030;-66
2022/11/20 04:16:46;;;;;;;5.63;4.17;;;;;;;17.20;33.55;101113.69;4990790;28;20125;-67
2022/11/20 04:19:14;;;;;;;6.50;4.38;;;;;;;17.21;33.30;101109.25;4989781;28;20263;-65
2022/11/20 04:21:39;;;;;;;6.35;4.38;;;;;;;17.21;33.48;101110.09;4990510;28;20075;-67
2022/11/20 04:24:05;;;;;;;5.97;3.90;;;;;;;17.25;33.47;101118.63;4991257;28;20030;-65
2022/11/20 04:26:30;;;;;;;5.18;3.47;;;;;;;17.26;33.61;101116.81;4990588;28;20061;-66
2022/11/20 04:28:57;;;;;;;6.57;4.15;;;;;;;17.26;33.48;101117.69;4990869;28;20045;-66
2022/11/20 04:31:25;;;;;;;6.38;4.03;;;;;;;17.26;33.66;101116.81;4990068;28;20486;-65
2022/11/20 04:33:51;;;;;;;6.68;4.70;;;;;;;17.17;33.42;101103.38;4991319;28;20033;-66
2022/11/20 04:36:18;;;;;;;6.95;4.13;;;;;;;17.26;33.46;101116.81;4994441;28;20038;-66
2022/11/20 04:38:44;;;;;;;5.65;3.90;;;;;;;17.17;33.70;101105.19;4994133;28;20034;-66
2022/11/20 04:41:16;;;;;;;5.63;4.00;;;;;;;17.22;33.22;101109.13;4993582;28;20121;-66
2022/11/20 04:43:47;;;;;;;6.53;4.50;;;;;;;17.16;33.58;101098.22;4994395;28;20033;-67
2022/11/20 04:46:12;;;;;;;5.85;4.20;;;;;;;17.19;33.42;101103.25;4993099;28;20080;-65
2022/11/20 04:48:38;;;;;;;6.27;4.20;;;;;;;17.22;33.75;101103.88;4993609;28;20046;-66
2022/11/20 04:51:04;;;;;;;6.33;4.10;;;;;;;17.15;33.31;101093.94;4994105;28;20292;-67
2022/11/20 04:53:29;;;;;;;6.03;4.65;;;;;;;17.20;33.60;101104.94;4993826;28;20735;-67
2022/11/20 04:56:02;;;;;;;5.40;3.95;;;;;;;17.23;33.34;101102.09;4993044;28;20030;-67
2022/11/20 04:58:28;;;;;;;5.68;4.30;;;;;;;17.16;33.09;101096.41;4993424;28;20109;-66
2022/11/20 05:00:53;;;;;;;5.95;4.18;;;;;;;17.16;33.24;101087.69;5000044;28;20114;-67
2022/11/20 05:03:18;;;;;;;6.10;4.50;;;;;;;17.15;33.11;101086.84;4994250;28;20041;-67
2022/11/20 05:05:44;;;;;;;6.13;4.22;;;;;;;17.24;33.08;101095.84;4992763;28;20317;-67
2022/11/20 05:08:09;;;;;;;5.85;4.10;;;;;;;17.17;33.03;101086.75;4993519;28;20529;-65
2022/11/20 05:10:34;;;;;;;5.75;4.13;;;;;;;17.17;33.18;101084.09;4993228;28;20034;-66
2022/11/20 05:13:00;;;;;;;5.90;4.30;;;;;;;17.22;33.12;101082.78;4993554;28;20390;-67
2022/11/20 05:15:25;;;;;;;6.23;4.53;;;;;;;17.23;32.96;101091.56;4993688;28;20044;-66
2022/11/20 05:17:51;;;;;;;6.30;4.25;;;;;;;17.19;33.32;101083.03;4992911;28;20287;-67
2022/11/20 05:20:18;;;;;;;6.10;4.00;;;;;;;17.19;33.39;101079.56;4993540;28;20042;-67
2022/11/20 05:22:44;;;;;;;6.15;4.25;;;;;;;17.23;33.35;101083.66;4993246;28;20069;-66
2022/11/20 05:25:10;;;;;;;6.22;4.20;;;;;;;17.13;33.16;101059.78;4993026;28;20044;-65
2022/11/20 05:27:35;;;;;;;6.60;4.03;;;;;;;17.19;33.16;101072.50;4993204;28;20034;-67
2022/11/20 05:30:00;;;;;;;6.18;4.30;;;;;;;17.20;33.25;101073.34;4994011;28;20026;-66
2022/11/20 05:32:25;;;;;;;6.88;4.50;;;;;;;16.99;33.18;101037.09;4993551;28;20547;-67
2022/11/20 05:34:53;;;;;;;5.53;3.97;;;;;;;17.16;33.36;101061.34;4992911;28;20037;-68
2022/11/20 05:37:19;;;;;;;6.72;4.30;;;;;;;17.23;33.08;101076.59;4993091;28;20050;-63
2022/11/20 05:39:44;;;;;;;6.57;4.57;;;;;;;17.12;33.05;101058.09;4992719;28;20034;-64
2022/11/20 05:44:53;;;;;;;6.93;4.63;;;;;;;17.25;33.00;101075.66;4992411;28;20619;-67
2022/11/20 05:47:19;;;;;;;6.30;4.13;;;;;;;17.22;33.15;101074.06;4992946;28;20037;-65
2022/11/20 05:49:44;;;;;;;6.22;4.07;;;;;;;17.19;33.01;101074.28;4992545;28;20038;-67
2022/11/20 05:52:09;;;;;;;5.97;4.18;;;;;;;17.23;33.31;101078.41;4992599;28;20045;-65
2022/11/20 05:54:34;;;;;;;5.68;3.92;;;;;;;17.33;33.91;101099.63;4993081;28;20042;-63
2022/11/20 05:57:00;;;;;;;5.57;3.80;;;;;;;17.30;34.01;101079.59;4992408;28;20136;-67
2022/11/20 05:59:25;;;;;;;5.78;3.83;;;;;;;17.34;34.37;101083.69;4992357;28;20030;-65
2022/11/20 06:01:50;;;;;;;6.13;3.60;;;;;;;17.47;34.75;101101.25;4993240;28;20038;-65
2022/11/20 06:04:15;;;;;;;5.23;3.10;;;;;;;17.54;35.20;101103.28;4992123;28;20549;-67
2022/11/20 06:06:41;;;;;;;5.33;3.40;;;;;;;17.54;35.08;101100.66;5007404;28;20272;-67
2022/11/20 06:09:06;;;;;;;5.20;3.63;;;;;;;17.68;35.00;101109.34;4992040;28;20286;-66
2022/11/20 06:11:31;;;;;;;5.55;3.75;;;;;;;17.73;35.29;101108.00;4992410;28;20430;-69
2022/11/20 06:13:57;;;;;;;5.60;3.25;;;;;;;17.70;35.25;101100.34;4991609;28;20107;-66
2022/11/20 06:16:22;;;;;;;5.47;3.30;;;;;;;17.74;35.52;101098.34;4992185;28;20034;-68
2022/11/20 06:18:48;;;;;;;4.53;3.05;;;;;;;17.77;35.28;101091.03;4991824;28;20034;-65
2022/11/20 06:21:16;;;;;;;4.82;3.35;;;;;;;17.85;35.47;101095.72;4991422;28;20403;-67
2022/11/20 06:23:42;;;;;;;5.25;3.47;;;;;;;17.82;35.40;101079.31;4992250;28;20026;-65
2022/11/20 06:26:13;;;;;;;4.90;3.40;;;;;;;17.91;35.44;101095.28;4991175;28;20454;-67
2022/11/20 06:28:38;;;;;;;5.38;3.08;;;;;;;17.87;35.26;101085.88;4991408;28;20058;-65
2022/11/20 06:31:06;;;;;;;4.85;3.28;;;;;;;17.87;35.09;101083.25;4992639;28;20109;-66
2022/11/20 06:33:31;;;;;;;5.47;3.70;;;;;;;17.92;34.99;101088.22;4991973;28;20033;-67
2022/11/20 06:36:01;;;;;;;7.03;3.95;;;;;;;17.97;35.39;101095.78;4992224;28;20056;-66
2022/11/20 06:38:27;;;;;;;5.30;3.55;;;;;;;17.90;35.13;101077.78;4991366;28;20088;-66
2022/11/20 06:40:52;;;;;;;5.57;3.63;;;;;;;17.92;35.24;101073.22;4991060;28;20049;-65
2022/11/20 06:43:17;;;;;;;5.65;3.13;;;;;;;17.92;35.03;101077.66;4991064;28;20853;-66
2022/11/20 06:45:43;;;;;;;5.68;3.38;;;;;;;17.93;35.10;101074.06;4990953;28;20058;-66
2022/11/20 06:48:09;;;;;;;5.38;3.53;;;;;;;17.99;35.51;101080.66;4991844;28;20584;-67
2022/11/20 06:50:35;;;;;;;5.35;3.47;;;;;;;18.02;35.22;101081.25;4991995;28;20113;-64
2022/11/20 06:53:03;;;;;;;5.22;3.25;;;;;;;17.96;35.25;101058.03;4991623;28;20072;-66
2022/11/20 06:55:28;;;;;;;5.35;3.08;;;;;;;18.02;35.38;101068.06;4991555;28;20560;-67
2022/11/20 06:57:53;;;;;;;4.80;3.00;;;;;;;18.02;35.56;101070.72;4990648;28;20962;-65
2022/11/20 07:00:19;;;;;;;5.97;3.50;;;;;;;18.11;35.43;101079.72;4990592;28;20026;-65
2022/11/20 07:02:44;;;;;;;5.45;3.15;;;;;;;18.10;35.15;101076.25;4990743;28;20263;-65
2022/11/20 07:05:09;;;;;;;5.32;3.65;;;;;;;18.07;35.38;101076.50;4990864;28;20518;-67
2022/11/20 07:07:34;;;;;;;5.30;2.83;;;;;;;18.09;35.53;101089.56;5006587;28;20128;-67
2022/11/20 07:10:00;;;;;;;4.72;3.25;;;;;;;18.13;35.71;101085.72;4990778;28;20256;-64
2022/11/20 07:12:25;;;;;;;4.60;3.20;;;;;;;18.10;35.64;101070.13;4991497;28;20402;-66
2022/11/20 07:14:50;;;;;;;5.60;3.53;;;;;;;18.16;35.61;101074.09;4991103;28;20268;-66
2022/11/20 07:17:15;;;;;;;5.20;3.33;;;;;;;18.09;35.23;101066.66;4991322;28;20315;-64
2022/11/20 07:19:42;;;;;;;5.10;3.30;;;;;;;18.16;35.79;101068.81;4991262;28;20034;-66
2022/11/20 07:22:08;;;;;;;5.32;3.38;;;;;;;18.18;35.17;101067.72;4991356;28;20818;-64
2022/11/20 07:24:33;;;;;;;5.72;3.47;;;;;;;18.11;35.38;101067.34;4991510;28;20033;-66
2022/11/20 07:26:58;;;;;;;5.33;3.60;;;;;;;18.19;35.23;101071.22;4990884;28;20038;-67
2022/11/20 07:29:23;;;;;;;4.80;3.13;;;;;;;18.12;35.56;101061.13;4991114;28;20264;-65
2022/11/20 07:31:49;;;;;;;5.38;3.70;;;;;;;18.19;35.80;101066.78;4991605;28;20263;-64
2022/11/20 07:34:14;;;;;;;5.28;3.30;;;;;;;18.14;35.79;101055.75;4990750;28;20166;-65
2022/11/20 07:36:39;;;;;;;6.80;3.90;;;;;;;18.17;34.30;101058.16;4991085;28;20129;-66
2022/11/20 07:39:05;;;;;;;7.85;4.40;;;;;;;17.97;33.92;101028.03;4989247;28;20065;-67
2022/11/20 07:41:31;;;;;;;5.30;3.70;;;;;;;18.17;34.30;101060.78;4990927;28;20030;-67
2022/11/20 07:43:56;;;;;;;5.72;4.00;;;;;;;18.18;33.91;101062.44;4992039;28;20038;-65
2022/11/20 07:46:21;;;;;;;5.45;3.63;;;;;;;18.13;34.11;101054.06;4991522;28;20073;-68
2022/11/20 07:48:46;;;;;;;4.93;3.10;;;;;;;18.18;35.02;101056.34;4991184;28;20038;-66
2022/11/20 07:51:13;;;;;;;7.13;3.63;;;;;;;18.16;35.30;101043.28;4989194;28;20080;-67
2022/11/20 07:53:38;;;;;;;5.72;3.38;;;;;;;18.26;35.34;101060.06;4990245;28;20066;-67
2022/11/20 07:56:04;;;;;;;5.22;3.42;;;;;;;18.36;35.00;101061.97;4990852;28;20078;-67
2022/11/20 07:58:30;;;;;;;5.90;4.03;;;;;;;18.37;35.28;101064.47;4990781;28;20088;-66
2022/11/20 08:00:55;;;;;;;5.13;3.33;;;;;;;18.36;35.84;101062.81;4991285;28;20431;-66
2022/11/20 08:03:21;;;;;;;5.55;3.20;;;;;;;18.43;35.87;101077.19;4990902;28;20036;-68
2022/11/20 08:05:46;;;;;;;5.07;3.00;;;;;;;18.39;35.55;101067.00;4990997;28;20510;-66
2022/11/20 08:08:11;;;;;;;6.15;3.25;;;;;;;18.36;35.59;101051.41;4992861;28;20049;-65
2022/11/20 08:10:37;;;;;;;5.63;4.00;;;;;;;18.43;33.07;101064.00;4994335;28;20061;-66
2022/11/20 08:15:53;;;;;;;7.33;4.73;;;;;;;18.24;34.18;101053.22;4995034;28;20380;-66
2022/11/20 08:18:19;;;;;;;6.40;3.95;;;;;;;18.22;35.19;101058.63;4993783;28;20037;-71
2022/11/20 08:20:45;;;;;;;6.60;3.63;;;;;;;18.23;35.27;101051.53;4989465;28;20034;-68
2022/11/20 08:23:11;;;;;;;6.60;3.55;;;;;;;18.24;35.57;101061.13;4993525;28;20038;-70
2022/11/20 08:25:37;;;;;;;5.30;3.35;;;;;;;18.28;35.41;101062.59;4993751;28;20046;-70
2022/11/20 08:28:05;;;;;;;5.40;3.47;;;;;;;18.32;35.23;101058.72;4993548;28;20404;-72
2022/11/20 08:30:31;;;;;;;5.32;3.63;;;;;;;18.38;35.19;101055.63;4993969;28;20472;-70
2022/11/20 08:33:02;;;;;;;6.00;3.70;;;;;;;18.55;34.88;101069.25;4993278;28;20026;-69
2022/11/20 08:35:28;;;;;;;8.38;3.78;;;;;;;18.63;34.82;101075.63;4993058;28;20608;-70
2022/11/20 08:37:53;;;;;;;6.60;3.63;;;;;;;18.68;35.08;101062.06;4993417;28;20454;-71
2022/11/20 08:40:18;;;;;;;6.97;3.85;;;;;;;18.68;35.26;101057.59;4993058;28;20264;-67
2022/11/20 08:42:48;;;;;;;6.47;3.97;;;;;;;18.81;35.00;101059.28;4992764;28;20041;-73
2022/11/20 08:45:13;;;;;;;5.47;3.75;;;;;;;18.86;34.96;101059.75;4993218;28;20129;-70
2022/11/20 08:47:39;;;;;;;5.20;3.08;;;;;;;18.92;34.95;101069.84;4992772;28;20113;-71
2022/11/20 08:50:04;;;;;;;5.70;3.40;;;;;;;18.94;35.04;101056.50;4993669;28;20462;-70
2022/11/20 08:52:29;;;;;;;5.20;3.40;;;;;;;18.79;35.03;101034.81;4992342;28;20276;-69
2022/11/20 08:54:55;;;;;;;5.60;3.43;;;;;;;18.96;35.19;101058.06;4993420;28;20036;-69
2022/11/20 08:57:20;;;;;;;5.22;3.55;;;;;;;19.03;34.88;101063.69;4992263;28;20302;-68
2022/11/20 08:59:45;;;;;;;5.10;3.22;;;;;;;18.97;34.88;101058.91;4992830;28;20382;-68
2022/11/20 09:02:11;;;;;;;5.72;3.35;;;;;;;19.03;35.05;101064.50;4993196;28;20033;-69
2022/11/20 09:04:37;;;;;;;6.68;3.80;;;;;;;18.99;33.62;101051.69;4992350;28;20125;-74
2022/11/20 09:07:02;;;;;;;5.80;3.75;;;;;;;18.94;34.46;101048.59;4992607;28;20121;-68
2022/11/20 09:09:28;;;;;;;5.68;3.33;;;;;;;18.98;34.72;101047.38;4993176;28;20045;-70
2022/11/20 09:11:53;;;;;;;7.55;3.50;;;;;;;19.11;34.79;101057.78;4992234;28;20133;-70
2022/11/20 09:14:18;;;;;;;6.38;4.00;;;;;;;19.10;34.53;101050.81;4992977;28;20420;-71
2022/11/20 09:16:45;;;;;;;5.82;3.58;;;;;;;19.14;34.86;101052.25;4992694;28;20156;-70
2022/11/20 09:19:10;;;;;;;5.68;3.47;;;;;;;19.17;34.92;101050.19;4991179;28;20222;-68
2022/11/20 09:21:36;;;;;;;6.90;3.60;;;;;;;19.17;34.85;101052.00;4992844;28;20372;-74
2022/11/20 09:24:01;;;;;;;5.60;3.90;;;;;;;19.18;34.88;101043.94;4993533;28;20260;-71
2022/11/20 09:26:26;;;;;;;6.65;3.58;;;;;;;19.09;34.69;101026.19;4992468;28;20470;-68
2022/11/20 09:28:51;;;;;;;6.55;3.60;;;;;;;19.15;35.06;101032.75;4992121;28;20378;-68
2022/11/20 09:31:22;;;;;;;6.30;3.90;;;;;;;19.11;34.93;101024.25;4992718;28;20057;-69
2022/11/20 09:33:48;;;;;;;6.15;3.65;;;;;;;19.17;34.82;101030.84;4998431;28;20271;-69
2022/11/20 09:36:14;;;;;;;6.60;3.92;;;;;;;19.09;35.15;101009.50;4991780;28;20519;-75
2022/11/20 09:38:39;;;;;;;6.68;4.32;;;;;;;19.16;34.98;101018.59;4992863;28;20064;-72
2022/11/20 09:41:06;;;;;;;6.47;3.63;;;;;;;19.09;35.34;100997.16;4991429;28;20030;-73
2022/11/20 09:44:11;;;;;;;7.50;4.35;;;;;;;19.09;35.17;100997.16;4992809;28;20084;-69
2022/11/20 09:46:57;;;;;;;8.18;4.28;;;;;;;19.09;35.31;100993.66;4998812;28;20029;-73
2022/11/20 09:50:18;;;;;;;7.65;4.10;;;;;;;19.19;35.19;101008.59;4991312;28;20121;-74
2022/11/20 09:52:52;;;;;;;7.38;4.68;;;;;;;19.21;35.11;101004.03;4963109;28;20034;-73
2022/11/20 09:55:18;;;;;;;8.13;4.82;;;;;;;19.15;35.01;100995.78;4979702;28;20049;-72
2022/11/20 09:57:47;;;;;;;7.20;4.50;;;;;;;19.15;35.15;100991.34;4974351;28;20430;-75
2022/11/20 10:00:14;;;;;;;8.65;5.00;;;;;;;19.14;35.25;100984.38;4972352;28;20035;-73
2022/11/20 10:02:52;;;;;;;7.88;4.53;;;;;;;19.24;35.09;100988.91;4972724;28;20038;-72
2022/11/20 10:05:22;;;;;;;7.97;4.95;;;;;;;19.14;35.00;100971.19;4972731;28;20044;-68
2022/11/20 10:08:13;;;;;;;7.72;4.80;;;;;;;19.18;35.34;100977.03;4970440;28;20093;-71
2022/11/20 10:11:23;;;;;;;8.32;4.72;;;;;;;19.17;35.37;100973.56;4971605;28;20383;-70
2022/11/20 10:14:00;;;;;;;8.15;4.80;;;;;;;19.16;34.96;100952.56;4971961;28;20026;-71
2022/11/20 10:16:43;;;;;;;9.65;5.57;;;;;;;19.23;34.92;100950.22;4972341;28;20041;-71
2022/11/20 10:19:11;;;;;;;7.70;4.53;;;;;;;19.22;34.85;100941.47;4972398;28;20126;-72
2022/11/20 10:21:54;;;;;;;7.45;4.80;;;;;;;19.25;34.81;100927.16;4972299;28;20034;-72
2022/11/20 10:24:44;;;;;;;7.82;4.63;;;;;;;19.25;35.23;100929.78;4971789;28;20434;-70
2022/11/20 10:27:28;;;;;;;8.00;5.30;;;;;;;19.18;35.11;100927.69;4972103;28;20035;-73
2022/11/20 10:30:09;;;;;;;11.02;6.00;;;;;;;19.16;35.17;100923.50;4971716;28;20027;-74
2022/11/20 10:32:38;;;;;;;7.97;5.10;;;;;;;19.05;35.00;100897.16;4970736;28;20049;-73
2022/11/20 10:35:04;;;;;;;8.68;5.45;;;;;;;19.27;34.95;100930.53;4969666;28;20428;-73
2022/11/20 10:37:32;;;;;;;8.80;5.40;;;;;;;19.28;35.09;100918.97;4971991;28;20133;-69
2022/11/20 10:40:09;;;;;;;8.57;5.53;;;;;;;19.23;35.15;100905.31;4971231;28;20070;-71
2022/11/20 10:42:43;;;;;;;8.50;4.95;;;;;;;19.24;35.28;100905.19;4978139;28;20068;-71
2022/11/20 10:45:23;;;;;;;8.77;5.50;;;;;;;18.94;35.08;100864.53;4971387;28;20399;-71
2022/11/20 10:47:49;;;;;;;9.13;6.07;;;;;;;19.24;35.21;100899.06;4972605;28;20038;-71
2022/11/20 10:50:20;;;;;;;8.75;5.78;;;;;;;19.15;34.86;100872.47;4971672;28;20030;-71
2022/11/20 10:53:19;;;;;;;9.27;5.85;;;;;;;19.26;35.00;100886.56;4971749;28;20027;-72
2022/11/20 10:55:54;;;;;;;8.15;5.30;;;;;;;19.19;34.98;100867.75;4971613;28;20034;-70
2022/11/20 10:58:48;;;;;;;9.02;5.68;;;;;;;19.17;35.30;100864.41;4997699;28;20138;-72
2022/11/20 11:01:17;;;;;;;8.00;5.68;;;;;;;19.26;35.17;100862.78;4991044;28;20069;-72
2022/11/20 11:03:43;;;;;;;9.25;5.80;;;;;;;19.26;35.34;100858.31;4990753;28;20061;-71
2022/11/20 11:06:22;;;;;;;9.80;5.25;;;;;;;19.24;35.42;100856.81;4991104;28;20123;-70
2022/11/20 11:08:51;;;;;;;8.68;5.53;;;;;;;19.04;35.70;100838.19;4991129;28;20475;-75
2022/11/20 11:11:28;;;;;;;8.30;5.47;;;;;;;19.25;35.64;100864.59;4990522;28;20031;-72
2022/11/20 11:14:04;;;;;;;7.60;5.03;;;;;;;19.18;35.37;100858.16;4991057;28;20041;-73
2022/11/20 11:16:29;;;;;;;9.55;5.57;;;;;;;19.11;35.60;100847.28;4990984;28;20034;-70
2022/11/20 11:19:12;;;;;;;7.80;4.97;;;;;;;19.22;35.49;100859.56;4990460;28;20038;-71
2022/11/20 11:21:43;;;;;;;8.75;5.82;;;;;;;19.15;35.58;100840.78;4990350;28;20183;-71
2022/11/20 11:24:20;;;;;;;9.70;6.03;;;;;;;19.24;35.48;100860.28;4991093;28;20069;-71
2022/11/20 11:27:13;;;;;;;9.20;5.85;;;;;;;19.19;35.73;100852.72;4989646;28;20045;-70
2022/11/20 11:30:14;;;;;;;9.77;5.32;;;;;;;19.10;35.83;100835.03;5045563;27;20454;-65
2022/11/20 11:32:39;;;;;;;9.25;5.38;;;;;;;19.07;35.89;100835.28;5056614;28;20036;-66
2022/11/20 11:35:18;;;;;;;11.43;6.95;;;;;;;19.08;35.23;100839.63;5049731;28;20029;-66